createdAt,value
2022-09-20T00:01:28.620Z,12.07
2022-09-20T00:03:57.892Z,12.12
2022-09-20T00:06:27.966Z,12.03
2022-09-20T00:08:55.552Z,12.01
2022-09-20T00:11:25.558Z,12.11
2022-09-20T00:13:54.803Z,12.24
2022-09-20T00:16:36.267Z,12.24
2022-09-20T00:19:04.351Z,12.23
2022-09-20T00:21:32.698Z,12.21
2022-09-20T00:24:00.011Z,12.12
2022-09-20T00:26:27.771Z,12.22
2022-09-20T00:28:55.681Z,12.11
2022-09-20T00:31:23.206Z,12.01
2022-09-20T00:34:08.817Z,12.12
2022-09-20T00:36:35.585Z,12.12
2022-09-20T00:39:03.542Z,12.20
2022-09-20T00:41:32.189Z,12.12
2022-09-20T00:44:00.619Z,12.15
2022-09-20T00:46:38.008Z,12.14
2022-09-20T00:49:13.710Z,12.16
2022-09-20T00:51:45.725Z,12.14
2022-09-20T00:54:20.096Z,12.09
2022-09-20T00:56:48.421Z,12.08
2022-09-20T00:59:17.475Z,12.14
2022-09-20T01:01:48.937Z,12.05
2022-09-20T01:04:16.322Z,12.18
2022-09-20T01:06:46.014Z,12.04
2022-09-20T01:09:12.812Z,11.99
2022-09-20T01:11:41.058Z,12.11
2022-09-20T01:14:08.412Z,12.14
2022-09-20T01:16:37.152Z,12.14
2022-09-20T01:19:15.139Z,12.18
2022-09-20T01:21:42.023Z,12.18
2022-09-20T01:24:32.123Z,12.17
2022-09-20T01:27:47.812Z,12.08
2022-09-20T01:30:24.434Z,12.12
2022-09-20T01:33:17.176Z,12.02
2022-09-20T01:35:47.353Z,11.99
2022-09-20T01:38:35.131Z,12.02
2022-09-20T01:41:13.997Z,12.08
2022-09-20T01:43:43.111Z,12.05
2022-09-20T01:46:32.957Z,12.04
2022-09-20T01:49:21.603Z,12.00
2022-09-20T01:52:09.411Z,12.00
2022-09-20T01:55:06.373Z,11.97
2022-09-20T01:57:54.193Z,11.95
2022-09-20T02:00:26.490Z,11.98
2022-09-20T02:03:17.803Z,11.93
2022-09-20T02:06:15.237Z,11.94
2022-09-20T02:08:49.816Z,11.90
2022-09-20T02:11:19.602Z,11.99
2022-09-20T02:14:06.374Z,11.99
2022-09-20T02:16:39.853Z,12.05
2022-09-20T02:19:25.014Z,12.11
2022-09-20T02:22:11.271Z,12.10
2022-09-20T02:24:44.017Z,12.14
2022-09-20T02:27:16.547Z,12.16
2022-09-20T02:29:52.345Z,12.18
2022-09-20T02:32:55.198Z,12.30
2022-09-20T02:35:42.384Z,12.15
2022-09-20T02:38:15.023Z,12.05
2022-09-20T02:40:59.610Z,12.09
2022-09-20T02:43:35.231Z,12.09
2022-09-20T02:46:20.512Z,12.14
2022-09-20T02:49:01.950Z,12.18
2022-09-20T02:51:55.931Z,12.18
2022-09-20T02:54:50.766Z,12.17
2022-09-20T02:57:56.085Z,12.24
2022-09-20T03:00:59.693Z,12.24
2022-09-20T03:03:35.220Z,12.24
2022-09-20T03:06:14.722Z,12.32
2022-09-20T03:08:50.187Z,12.24
2022-09-20T03:11:32.203Z,12.24
2022-09-20T03:14:01.787Z,12.16
2022-09-20T03:16:56.401Z,12.18
2022-09-20T03:19:47.854Z,12.17
2022-09-20T03:22:20.350Z,12.20
2022-09-20T03:24:49.969Z,12.26
2022-09-20T03:27:16.637Z,12.20
2022-09-20T03:30:16.100Z,12.26
2022-09-20T03:33:06.060Z,12.19
2022-09-20T03:35:56.426Z,12.19
2022-09-20T03:38:42.881Z,12.21
2022-09-20T03:41:12.304Z,12.21
2022-09-20T03:43:57.328Z,12.19
2022-09-20T03:46:28.201Z,12.16
2022-09-20T03:49:00.103Z,12.11
2022-09-20T03:51:41.140Z,12.09
2022-09-20T03:54:31.211Z,12.08
2022-09-20T03:57:06.918Z,12.00
2022-09-20T03:59:58.965Z,12.00
2022-09-20T04:02:34.657Z,12.00
2022-09-20T04:05:07.701Z,11.98
2022-09-20T04:07:59.188Z,11.95
2022-09-20T04:10:51.577Z,11.98
2022-09-20T04:13:38.393Z,11.97
2022-09-20T04:16:13.882Z,11.99
2022-09-20T04:19:17.973Z,12.05
2022-09-20T04:21:55.622Z,12.08
2022-09-20T04:24:28.842Z,12.02
2022-09-20T04:27:17.709Z,12.07
2022-09-20T04:29:52.176Z,12.10
2022-09-20T04:32:31.169Z,12.04
2022-09-20T04:35:31.791Z,12.01
2022-09-20T04:38:00.957Z,12.09
2022-09-20T04:41:09.755Z,12.05
2022-09-20T04:44:13.648Z,11.98
2022-09-20T04:47:02.843Z,12.16
2022-09-20T04:50:07.804Z,12.13
2022-09-20T04:53:14.727Z,12.10
2022-09-20T04:56:15.151Z,12.06
2022-09-20T04:59:05.739Z,11.97
2022-09-20T05:01:55.652Z,12.05
2022-09-20T05:05:07.743Z,12.01
2022-09-20T05:08:01.258Z,12.09
2022-09-20T05:10:46.307Z,12.08
2022-09-20T05:13:19.187Z,12.13
2022-09-20T05:15:52.894Z,12.19
2022-09-20T05:18:28.594Z,12.16
2022-09-20T05:21:16.325Z,12.18
2022-09-20T05:23:51.943Z,12.12
2022-09-20T05:26:47.599Z,12.09
2022-09-20T05:29:29.528Z,12.14
2022-09-20T05:32:12.330Z,12.06
2022-09-20T05:34:52.133Z,12.16
2022-09-20T05:37:34.785Z,12.26
2022-09-20T05:40:23.797Z,12.12
2022-09-20T05:42:57.110Z,11.99
2022-09-20T05:45:46.173Z,12.04
2022-09-20T05:48:27.728Z,12.10
2022-09-20T05:50:55.774Z,12.14
2022-09-20T05:53:35.577Z,12.07
2022-09-20T05:56:24.116Z,12.09
2022-09-20T05:59:13.046Z,12.12
2022-09-20T06:01:57.946Z,12.10
2022-09-20T06:04:52.711Z,12.37
2022-09-20T06:07:52.081Z,12.40
2022-09-20T06:10:33.631Z,12.38
2022-09-20T06:13:20.677Z,12.48
2022-09-20T06:15:59.780Z,12.51
2022-09-20T06:18:29.428Z,12.52
2022-09-20T06:21:09.293Z,12.46
2022-09-20T06:23:36.919Z,12.50
2022-09-20T06:26:10.900Z,12.55
2022-09-20T06:28:43.136Z,12.57
2022-09-20T06:31:11.321Z,12.58
2022-09-20T06:33:51.743Z,12.65
2022-09-20T06:36:42.027Z,12.71
2022-09-20T06:39:33.468Z,12.74
2022-09-20T06:42:00.390Z,12.80
2022-09-20T06:44:27.072Z,12.82
2022-09-20T06:46:54.410Z,12.87
2022-09-20T06:49:22.009Z,12.85
2022-09-20T06:51:52.503Z,12.85
2022-09-20T06:54:21.758Z,12.88
2022-09-20T06:56:51.254Z,12.81
2022-09-20T06:59:17.949Z,12.79
2022-09-20T07:01:44.917Z,12.66
2022-09-20T07:04:11.649Z,12.67
2022-09-20T07:06:38.543Z,12.53
2022-09-20T07:09:06.111Z,12.59
2022-09-20T07:11:34.217Z,12.46
2022-09-20T07:14:01.509Z,12.34
2022-09-20T07:16:28.544Z,12.45
2022-09-20T07:18:56.798Z,12.52
2022-09-20T07:21:24.351Z,12.58
2022-09-20T07:23:51.487Z,12.77
2022-09-20T07:26:28.397Z,12.50
2022-09-20T07:28:55.911Z,12.83
2022-09-20T07:31:24.408Z,12.94
2022-09-20T07:33:51.677Z,12.75
2022-09-20T07:36:18.831Z,13.07
2022-09-20T07:38:53.220Z,13.03
2022-09-20T07:41:22.803Z,13.01
2022-09-20T07:43:50.853Z,12.95
2022-09-20T07:46:18.178Z,13.05
2022-09-20T07:48:44.925Z,13.08
2022-09-20T07:51:13.597Z,13.13
2022-09-20T07:53:40.585Z,13.17
2022-09-20T07:56:13.820Z,13.31
2022-09-20T07:58:41.928Z,13.28
2022-09-20T08:01:11.270Z,13.45
2022-09-20T08:03:39.293Z,13.48
2022-09-20T08:06:08.832Z,13.54
2022-09-20T08:08:37.298Z,13.59
2022-09-20T08:11:09.528Z,13.71
2022-09-20T08:16:30.331Z,13.92
2022-09-20T08:18:59.778Z,14.02
2022-09-20T08:21:31.536Z,14.11
2022-09-20T08:23:59.340Z,14.22
2022-09-20T08:26:28.379Z,14.29
2022-09-20T08:28:57.484Z,14.33
2022-09-20T08:31:26.885Z,14.28
2022-09-20T08:33:54.718Z,14.35
2022-09-20T08:36:24.588Z,14.44
2022-09-20T08:42:13.501Z,14.43
2022-09-20T08:45:00.003Z,14.30
2022-09-20T08:47:31.249Z,14.27
2022-09-20T08:50:00.908Z,14.33
2022-09-20T08:52:40.807Z,14.51
2022-09-20T08:55:17.836Z,14.53
2022-09-20T08:57:49.148Z,14.64
2022-09-20T09:00:24.228Z,14.79
2022-09-20T09:02:55.581Z,14.74
2022-09-20T09:05:34.953Z,14.86
2022-09-20T09:08:16.806Z,14.89
2022-09-20T09:10:55.051Z,14.84
2022-09-20T09:13:53.057Z,15.04
2022-09-20T09:16:28.648Z,15.23
2022-09-20T09:19:26.136Z,15.25
2022-09-20T09:21:58.477Z,15.32
2022-09-20T09:24:25.986Z,15.20
2022-09-20T09:27:14.183Z,15.18
2022-09-20T09:29:55.050Z,15.06
2022-09-20T09:32:23.790Z,14.95
2022-09-20T09:34:51.082Z,14.81
2022-09-20T09:37:30.608Z,14.80
2022-09-20T09:40:16.729Z,14.76
2022-09-20T09:42:56.255Z,14.65
2022-09-20T09:45:38.487Z,14.60
2022-09-20T09:48:30.645Z,14.47
2022-09-20T09:51:15.523Z,14.53
2022-09-20T09:53:43.467Z,14.50
2022-09-20T09:56:36.022Z,14.44
2022-09-20T09:59:12.812Z,14.43
2022-09-20T10:02:19.289Z,14.55
2022-09-20T10:04:58.009Z,14.56
2022-09-20T10:08:08.609Z,14.73
2022-09-20T10:10:51.092Z,14.77
2022-09-20T10:13:36.026Z,14.84
2022-09-20T10:16:25.646Z,14.84
2022-09-20T10:19:19.454Z,14.73
2022-09-20T10:22:04.656Z,14.86
2022-09-20T10:24:55.318Z,14.97
2022-09-20T10:27:50.221Z,15.16
2022-09-20T10:30:26.091Z,15.24
2022-09-20T10:33:30.325Z,15.28
2022-09-20T10:36:06.014Z,15.30
2022-09-20T10:38:56.524Z,15.25
2022-09-20T10:41:57.090Z,15.37
2022-09-20T10:45:04.560Z,15.56
2022-09-20T10:47:59.138Z,15.62
2022-09-20T10:50:48.817Z,15.71
2022-09-20T10:53:33.830Z,15.81
2022-09-20T10:56:24.133Z,15.84
2022-09-20T10:59:11.888Z,15.82
2022-09-20T11:01:43.760Z,16.00
2022-09-20T11:04:28.391Z,15.98
2022-09-20T11:07:32.729Z,16.17
2022-09-20T11:10:17.244Z,16.24
2022-09-20T11:12:53.829Z,16.34
2022-09-20T11:15:47.006Z,16.46
2022-09-20T11:18:23.388Z,16.53
2022-09-20T11:21:07.534Z,16.49
2022-09-20T11:23:44.525Z,16.41
2022-09-20T11:26:47.803Z,16.65
2022-09-20T11:34:07.792Z,17.09
2022-09-20T11:40:04.623Z,17.19
2022-09-20T11:42:36.777Z,17.46
2022-09-20T11:45:04.107Z,17.38
2022-09-20T11:47:56.189Z,17.11
2022-09-20T11:50:47.578Z,17.14
2022-09-20T11:53:27.685Z,17.19
2022-09-20T11:56:00.295Z,17.17
2022-09-20T11:58:27.777Z,16.90
2022-09-20T12:00:59.084Z,16.91
2022-09-20T12:03:37.487Z,17.10
2022-09-20T12:06:06.977Z,17.09
2022-09-20T12:08:37.417Z,17.16
2022-09-20T12:11:12.237Z,17.26
2022-09-20T12:13:41.802Z,17.21
2022-09-20T12:16:08.523Z,17.21
2022-09-20T12:18:35.786Z,17.23
2022-09-20T12:21:15.921Z,17.42
2022-09-20T12:23:52.348Z,17.21
2022-09-20T12:26:21.778Z,17.31
2022-09-20T12:28:51.000Z,17.43
2022-09-20T12:31:29.217Z,17.63
2022-09-20T12:34:03.633Z,17.55
2022-09-20T12:36:37.055Z,17.49
2022-09-20T12:39:05.972Z,17.53
2022-09-20T12:41:51.526Z,17.59
2022-09-20T12:44:32.410Z,17.67
2022-09-20T12:47:06.004Z,17.51
2022-09-20T12:50:06.459Z,17.53
2022-09-20T12:53:03.887Z,17.35
2022-09-20T12:55:38.483Z,17.54
2022-09-20T12:58:05.172Z,17.55
2022-09-20T13:00:40.658Z,17.69
2022-09-20T13:03:36.303Z,17.64
2022-09-20T13:06:15.747Z,17.73
2022-09-20T13:09:09.189Z,17.42
2022-09-20T13:11:55.946Z,17.17
2022-09-20T13:14:29.097Z,16.82
2022-09-20T13:17:01.547Z,16.88
2022-09-20T13:19:41.287Z,16.73
2022-09-20T13:22:27.110Z,16.53
2022-09-20T13:24:58.190Z,16.61
2022-09-20T13:27:29.848Z,16.69
2022-09-20T13:30:09.974Z,16.88
2022-09-20T13:32:41.634Z,17.01
2022-09-20T13:35:08.626Z,17.13
2022-09-20T13:37:43.006Z,17.22
2022-09-20T13:40:19.249Z,17.33
2022-09-20T13:42:48.495Z,17.32
2022-09-20T13:45:18.961Z,17.54
2022-09-20T13:47:56.160Z,17.61
2022-09-20T13:50:26.831Z,17.64
2022-09-20T13:52:59.558Z,17.70
2022-09-20T13:55:38.700Z,17.68
2022-09-20T13:58:28.985Z,17.50
2022-09-20T14:01:02.007Z,17.50
2022-09-20T14:03:30.662Z,17.22
2022-09-20T14:06:01.856Z,17.03
2022-09-20T14:08:33.236Z,17.00
2022-09-20T14:11:08.548Z,16.88
2022-09-20T14:13:41.929Z,16.82
2022-09-20T14:16:10.182Z,17.05
2022-09-20T14:18:40.701Z,16.92
2022-09-20T14:21:09.177Z,16.90
2022-09-20T14:23:52.095Z,16.62
2022-09-20T14:26:25.701Z,16.77
2022-09-20T14:28:52.649Z,16.60
2022-09-20T14:31:29.173Z,16.50
2022-09-20T14:33:59.781Z,16.61
2022-09-20T14:36:29.773Z,16.62
2022-09-20T14:39:02.352Z,16.74
2022-09-20T14:41:38.933Z,16.78
2022-09-20T14:44:17.967Z,16.76
2022-09-20T14:46:44.692Z,16.78
2022-09-20T14:49:26.532Z,16.70
2022-09-20T14:51:54.400Z,16.80
2022-09-20T14:54:30.799Z,16.79
2022-09-20T14:56:58.805Z,16.81
2022-09-20T14:59:30.101Z,16.76
2022-09-20T15:02:11.226Z,16.92
2022-09-20T15:04:40.023Z,16.87
2022-09-20T15:07:10.911Z,16.79
2022-09-20T15:09:37.941Z,16.95
2022-09-20T15:12:13.683Z,16.91
2022-09-20T15:14:41.460Z,16.88
2022-09-20T15:17:15.284Z,17.03
2022-09-20T15:19:42.004Z,17.03
2022-09-20T15:22:10.419Z,16.98
2022-09-20T15:24:37.283Z,17.17
2022-09-20T15:27:04.770Z,17.21
2022-09-20T15:29:31.673Z,17.34
2022-09-20T15:31:58.387Z,17.50
2022-09-20T15:34:25.806Z,17.65
2022-09-20T15:36:53.985Z,17.55
2022-09-20T15:39:22.318Z,17.73
2022-09-20T15:41:52.354Z,17.74
2022-09-20T15:44:19.248Z,17.64
2022-09-20T15:46:46.616Z,17.43
2022-09-20T15:49:13.339Z,17.34
2022-09-20T15:51:40.055Z,17.33
2022-09-20T15:54:07.764Z,17.28
2022-09-20T15:56:37.105Z,17.34
2022-09-20T15:59:06.635Z,17.28
2022-09-20T16:01:37.576Z,17.10
2022-09-20T16:04:10.107Z,17.09
2022-09-20T16:06:38.038Z,17.01
2022-09-20T16:09:05.556Z,17.16
2022-09-20T16:11:32.393Z,17.05
2022-09-20T16:14:00.617Z,16.92
2022-09-20T16:16:29.256Z,16.54
2022-09-20T16:19:14.701Z,16.42
2022-09-20T16:21:58.830Z,16.30
2022-09-20T16:24:36.079Z,16.19
2022-09-20T16:27:06.171Z,16.15
2022-09-20T16:29:33.422Z,16.13
2022-09-20T16:32:01.683Z,16.16
2022-09-20T16:34:33.735Z,16.03
2022-09-20T16:37:03.556Z,15.85
2022-09-20T16:39:30.890Z,15.73
2022-09-20T16:42:03.704Z,15.63
2022-09-20T16:44:32.420Z,15.53
2022-09-20T16:46:59.246Z,15.48
2022-09-20T16:49:28.786Z,15.51
2022-09-20T16:51:56.122Z,15.51
2022-09-20T16:54:22.933Z,15.51
2022-09-20T16:56:51.192Z,15.56
2022-09-20T16:59:21.485Z,15.58
2022-09-20T17:01:49.556Z,15.45
2022-09-20T17:04:18.493Z,15.56
2022-09-20T17:06:45.913Z,15.44
2022-09-20T17:09:14.260Z,15.54
2022-09-20T17:11:45.708Z,15.55
2022-09-20T17:14:13.310Z,15.49
2022-09-20T17:16:41.755Z,15.40
2022-09-20T17:19:11.265Z,15.37
2022-09-20T17:21:40.468Z,15.35
2022-09-20T17:24:07.715Z,15.35
2022-09-20T17:26:38.369Z,15.33
2022-09-20T17:29:07.649Z,15.35
2022-09-20T17:31:37.265Z,15.36
2022-09-20T17:34:07.694Z,15.37
2022-09-20T17:36:39.178Z,15.37
2022-09-20T17:39:06.892Z,15.39
2022-09-20T17:41:33.920Z,15.32
2022-09-20T17:44:02.770Z,15.35
2022-09-20T17:46:31.702Z,15.32
2022-09-20T17:49:01.163Z,15.40
2022-09-20T17:51:34.718Z,15.42
2022-09-20T17:54:01.656Z,15.45
2022-09-20T17:56:30.851Z,15.49
2022-09-20T17:59:03.238Z,15.46
2022-09-20T18:01:32.354Z,15.44
2022-09-20T18:04:00.697Z,15.41
2022-09-20T18:06:29.731Z,15.48
2022-09-20T18:08:59.189Z,15.49
2022-09-20T18:11:31.880Z,15.45
2022-09-20T18:13:59.907Z,15.47
2022-09-20T18:16:26.759Z,15.49
2022-09-20T18:18:53.826Z,15.43
2022-09-20T18:21:23.652Z,15.38
2022-09-20T18:23:51.859Z,15.39
2022-09-20T18:26:23.554Z,15.37
2022-09-20T18:28:58.189Z,15.37
2022-09-20T18:31:27.650Z,15.34
2022-09-20T18:33:55.905Z,15.36
2022-09-20T18:36:25.643Z,15.32
2022-09-20T18:38:54.493Z,15.38
2022-09-20T18:41:23.994Z,15.41
2022-09-20T18:43:51.245Z,15.41
2022-09-20T18:46:23.718Z,15.41
2022-09-20T18:48:59.957Z,15.43
2022-09-20T18:51:30.297Z,15.43
2022-09-20T18:53:58.154Z,15.41
2022-09-20T18:56:27.751Z,15.34
2022-09-20T18:58:59.958Z,15.30
2022-09-20T19:01:38.744Z,15.25
2022-09-20T19:04:20.356Z,15.20
2022-09-20T19:07:03.485Z,15.21
2022-09-20T19:09:54.618Z,15.09
2022-09-20T19:12:44.077Z,14.95
2022-09-20T19:15:38.651Z,14.95
2022-09-20T19:18:43.962Z,14.92
2022-09-20T19:21:35.265Z,14.77
2022-09-20T19:24:17.163Z,14.81
2022-09-20T19:26:44.715Z,14.75
2022-09-20T19:29:19.598Z,14.79
2022-09-20T19:31:49.404Z,14.86
2022-09-20T19:34:21.315Z,14.95
2022-09-20T19:36:57.308Z,14.99
2022-09-20T19:40:14.907Z,15.05
2022-09-20T19:43:00.759Z,15.10
2022-09-20T19:45:31.669Z,15.13
2022-09-20T19:48:16.851Z,15.07
2022-09-20T19:50:48.718Z,15.14
2022-09-20T19:53:17.796Z,15.20
2022-09-20T19:55:48.395Z,15.23
2022-09-20T19:58:15.986Z,15.21
2022-09-20T20:00:47.213Z,15.21
2022-09-20T20:03:15.539Z,15.18
2022-09-20T20:05:50.774Z,15.19
2022-09-20T20:08:54.965Z,15.24
2022-09-20T20:11:42.368Z,15.22
2022-09-20T20:14:08.997Z,15.32
2022-09-20T20:16:44.739Z,15.37
2022-09-20T20:19:51.333Z,15.26
2022-09-20T20:22:39.708Z,15.35
2022-09-20T20:25:22.287Z,15.24
2022-09-20T20:27:49.042Z,15.07
2022-09-20T20:30:15.857Z,15.07
2022-09-20T20:32:42.572Z,15.07
2022-09-20T20:35:12.362Z,15.14
2022-09-20T20:37:39.890Z,15.18
2022-09-20T20:40:08.570Z,15.10
2022-09-20T20:42:37.083Z,15.23
2022-09-20T20:45:04.067Z,15.20
2022-09-20T20:47:30.777Z,15.19
2022-09-20T20:49:57.573Z,15.07
2022-09-20T20:52:24.269Z,15.06
2022-09-20T20:54:51.122Z,15.03
2022-09-20T20:57:19.011Z,15.11
2022-09-20T20:59:45.899Z,15.06
2022-09-20T21:02:12.674Z,15.13
2022-09-20T21:04:40.759Z,15.11
2022-09-20T21:07:07.525Z,15.05
2022-09-20T21:09:34.182Z,14.98
2022-09-20T21:12:02.023Z,15.06
2022-09-20T21:14:33.932Z,14.99
2022-09-20T21:17:03.643Z,14.90
2022-09-20T21:19:30.303Z,14.90
2022-09-20T21:21:57.982Z,14.68
2022-09-20T21:24:27.155Z,14.68
2022-09-20T21:26:53.913Z,14.74
2022-09-20T21:29:20.843Z,14.66
2022-09-20T21:31:47.784Z,14.51
2022-09-20T21:34:15.856Z,14.39
2022-09-20T21:36:43.981Z,14.35
2022-09-20T21:39:11.167Z,14.44
2022-09-20T21:41:39.334Z,14.43
2022-09-20T21:44:10.294Z,14.40
2022-09-20T21:46:41.979Z,14.47
2022-09-20T21:49:12.339Z,14.27
2022-09-20T21:51:42.086Z,14.32
2022-09-20T21:54:09.490Z,14.35
2022-09-20T21:56:39.716Z,14.27
2022-09-20T21:59:07.974Z,14.17
2022-09-20T22:01:40.347Z,14.14
2022-09-20T22:04:09.880Z,13.98
2022-09-20T22:06:39.233Z,14.05
2022-09-20T22:09:16.956Z,14.01
2022-09-20T22:11:46.556Z,13.96
2022-09-20T22:14:14.849Z,13.92
2022-09-20T22:16:43.639Z,13.88
2022-09-20T22:19:13.001Z,13.88
2022-09-20T22:21:42.282Z,13.85
2022-09-20T22:24:10.766Z,13.80
2022-09-20T22:26:42.911Z,13.74
2022-09-20T22:29:10.387Z,13.75
2022-09-20T22:31:46.104Z,13.71
2022-09-20T22:34:18.602Z,13.73
2022-09-20T22:36:47.796Z,13.83
2022-09-20T22:39:15.703Z,13.77
2022-09-20T22:41:43.176Z,13.82
2022-09-20T22:44:10.786Z,13.85
2022-09-20T22:46:38.941Z,13.87
2022-09-20T22:49:06.326Z,13.85
2022-09-20T22:51:33.550Z,13.81
2022-09-20T22:54:04.381Z,13.79
2022-09-20T22:56:31.756Z,13.81
2022-09-20T22:59:11.136Z,13.80
2022-09-20T23:01:42.290Z,13.84
2022-09-20T23:04:14.348Z,13.79
2022-09-20T23:06:43.672Z,13.73
2022-09-20T23:09:13.374Z,13.72
2022-09-20T23:11:42.160Z,13.65
2022-09-20T23:14:11.971Z,13.64
2022-09-20T23:16:39.137Z,13.57
2022-09-20T23:19:07.465Z,13.54
2022-09-20T23:21:36.195Z,13.51
2022-09-20T23:24:05.018Z,13.54
2022-09-20T23:26:34.008Z,13.67
2022-09-20T23:29:08.345Z,13.49
2022-09-20T23:31:37.069Z,13.34
2022-09-20T23:34:06.541Z,13.30
2022-09-20T23:36:36.067Z,13.26
2022-09-20T23:39:02.966Z,13.23
2022-09-20T23:41:30.315Z,13.26
2022-09-20T23:43:57.178Z,13.26
2022-09-20T23:46:26.241Z,13.21
2022-09-20T23:48:53.520Z,13.21
2022-09-20T23:51:24.024Z,13.28
2022-09-20T23:53:52.849Z,13.38
2022-09-20T23:56:21.193Z,13.31
2022-09-20T23:58:48.710Z,13.30
